Portada
METAR-TAF:

METAR-TAF

Aeroports :

Florești, Moldàvia

latitud: 47-51-45N, longitud: 028-12-45E, altitud: 101 m

METAR: manca

Hora: 19:15 (17:15 UTC)

Pronòstic

L'informe es va fer fa 32 hores i 55 minuts, a les 08:20 UTC
Pronòstic vàlid del 06 a les 09 UTC al 06 a les 18 UTC
Vent 8 kt del Sud
Visibilitat 10 km o més
sense núvols per sota de 1500 mi sense presència de cumulonimbus.

TAF: LUBM 060820Z 0609/0618 18008KT CAVOK

Observacions i pronòstics meteorològics de més de 4000 aeroports (METAR i TAF).

Les estacions disponibles són els punts grocs i vermells al mapa.

Posi el ratolí al punt desitjat per veure el nom de l'estació.

Feu clic per veure les observacions i els pronòstics meteorològics.

Per canviar el mapa: feu clic els botons verds amb una creu de color negre per apropar; al botó verd amb un guió per allunyar la imatge; o en les fletxes verdes per a mapes adjacents.


METAR-TAF: